Time;durP1;ratioP1;P1;durP2;ratioP2;P2;SDS_P1;SDS_P2;PMS_P1;PMS_P2;Temp;Humidity;BMP_temperature;BMP_pressure;BME280_temperature;BME280_humidity;BME280_pressure;Samples;Min_cycle;Max_cycle;Signal;HPM_P1;HPM_P2
2023/05/14 00:02:55;;;;;;;88.55;34.47;;;;;;;;;;8399185;28;20044;-89
2023/05/14 00:07:02;;;;;;;54.45;23.30;;;;;;;;;;8415615;28;20425;-87
2023/05/14 00:11:04;;;;;;;36.42;18.50;;;;;;;;;;8426000;28;20406;-89
2023/05/14 00:15:08;;;;;;;34.05;16.40;;;;;;;;;;8412035;28;20487;-89
2023/05/14 00:19:11;;;;;;;29.10;15.45;;;;;;;;;;8423958;28;20043;-89
2023/05/14 00:23:18;;;;;;;29.33;15.18;;;;;;;;;;8419528;28;20041;-88
2023/05/14 00:27:21;;;;;;;25.05;14.50;;;;;;;;;;8409276;28;20052;-89
2023/05/14 00:31:24;;;;;;;30.15;14.88;;;;;;;;;;8414933;28;20523;-89
2023/05/14 00:35:28;;;;;;;27.75;15.02;;;;;;;;;;8421874;28;20503;-90
2023/05/14 00:39:33;;;;;;;32.88;15.50;;;;;;;;;;8602984;22;20483;-87
2023/05/14 00:43:36;;;;;;;27.38;14.48;;;;;;;;;;8392314;28;20391;-85
2023/05/14 00:47:39;;;;;;;29.33;14.02;;;;;;;;;;8395755;28;20483;-85
2023/05/14 00:51:45;;;;;;;23.38;12.88;;;;;;;;;;8416865;28;20044;-85
2023/05/14 00:55:51;;;;;;;23.88;12.35;;;;;;;;;;8401066;28;20040;-84
2023/05/14 00:59:54;;;;;;;30.17;14.57;;;;;;;;;;8383789;28;20376;-85
2023/05/14 01:03:57;;;;;;;26.45;13.50;;;;;;;;;;8402558;28;20491;-85
2023/05/14 01:08:06;;;;;;;24.70;13.00;;;;;;;;;;8400270;28;20048;-85
2023/05/14 01:12:17;;;;;;;25.33;13.45;;;;;;;;;;8400162;28;20059;-85
2023/05/14 01:16:20;;;;;;;21.27;12.85;;;;;;;;;;8399769;28;20153;-85
2023/05/14 01:20:24;;;;;;;22.33;12.48;;;;;;;;;;8387041;28;20049;-85
2023/05/14 01:24:28;;;;;;;22.27;13.38;;;;;;;;;;8388767;28;20622;-84
2023/05/14 01:28:35;;;;;;;29.27;14.43;;;;;;;;;;8397005;28;20049;-85
2023/05/14 01:32:39;;;;;;;29.08;14.95;;;;;;;;;;8399473;28;20045;-86
2023/05/14 01:36:44;;;;;;;26.55;15.50;;;;;;;;;;8399424;28;20056;-85
2023/05/14 01:40:50;;;;;;;27.98;17.13;;;;;;;;;;8398715;28;20052;-86
2023/05/14 01:44:53;;;;;;;24.77;14.70;;;;;;;;;;8399220;28;20048;-85
2023/05/14 01:48:56;;;;;;;26.15;16.17;;;;;;;;;;8399425;28;20399;-86
2023/05/14 01:52:59;;;;;;;26.00;15.70;;;;;;;;;;8398685;28;20488;-86
2023/05/14 01:57:03;;;;;;;24.27;13.60;;;;;;;;;;8398728;28;20040;-84
2023/05/14 02:01:06;;;;;;;25.75;13.98;;;;;;;;;;8398282;28;20124;-84
2023/05/14 02:05:10;;;;;;;25.67;13.55;;;;;;;;;;8398594;28;20070;-84
2023/05/14 02:09:13;;;;;;;21.92;12.60;;;;;;;;;;8398160;28;20464;-86
2023/05/14 02:13:18;;;;;;;21.80;11.63;;;;;;;;;;8398209;28;20506;-85
2023/05/14 02:17:20;;;;;;;27.05;11.65;;;;;;;;;;8398086;28;20044;-85
2023/05/14 02:21:24;;;;;;;22.88;11.90;;;;;;;;;;8390318;28;20546;-85
2023/05/14 02:25:27;;;;;;;27.05;14.93;;;;;;;;;;8392257;28;20052;-84
2023/05/14 02:29:31;;;;;;;30.00;20.55;;;;;;;;;;8386002;28;20044;-85
2023/05/14 02:33:34;;;;;;;31.60;18.30;;;;;;;;;;8379946;28;20151;-84
2023/05/14 02:37:37;;;;;;;26.08;15.88;;;;;;;;;;8386061;28;20040;-85
2023/05/14 02:41:39;;;;;;;22.58;13.27;;;;;;;;;;8396983;28;20131;-85
2023/05/14 02:45:44;;;;;;;20.83;12.88;;;;;;;;;;8397021;28;20453;-85
2023/05/14 02:49:47;;;;;;;20.95;12.90;;;;;;;;;;8397005;28;20555;-85
2023/05/14 02:53:49;;;;;;;21.48;12.77;;;;;;;;;;8396882;28;20165;-85
2023/05/14 02:57:52;;;;;;;20.77;11.27;;;;;;;;;;8399250;28;20403;-85
2023/05/14 03:01:57;;;;;;;20.15;11.85;;;;;;;;;;8407561;28;20122;-85
2023/05/14 03:05:59;;;;;;;17.88;11.20;;;;;;;;;;8396222;28;20132;-85
2023/05/14 03:10:03;;;;;;;15.77;10.10;;;;;;;;;;8396339;28;20040;-85
2023/05/14 03:14:05;;;;;;;21.10;11.73;;;;;;;;;;8396292;28;20049;-85
2023/05/14 03:18:10;;;;;;;24.52;13.98;;;;;;;;;;8396428;28;20040;-85
2023/05/14 03:22:13;;;;;;;23.98;13.73;;;;;;;;;;8395998;28;20040;-84
2023/05/14 03:26:15;;;;;;;27.40;13.93;;;;;;;;;;8396072;28;20395;-86
2023/05/14 03:30:18;;;;;;;36.50;20.48;;;;;;;;;;8397527;28;20052;-85
2023/05/14 03:34:23;;;;;;;23.58;14.90;;;;;;;;;;8395776;28;20442;-85
2023/05/14 03:38:26;;;;;;;22.15;14.73;;;;;;;;;;8381639;28;20135;-85
2023/05/14 03:42:29;;;;;;;17.85;12.63;;;;;;;;;;8395427;28;20060;-86
2023/05/14 03:46:31;;;;;;;20.38;12.13;;;;;;;;;;8396903;28;20048;-86
2023/05/14 03:50:36;;;;;;;17.20;10.55;;;;;;;;;;8407465;28;20052;-85
2023/05/14 03:54:40;;;;;;;14.10;9.15;;;;;;;;;;8395313;28;20093;-86
2023/05/14 03:58:42;;;;;;;13.38;8.98;;;;;;;;;;8395415;28;20162;-86
2023/05/14 04:02:45;;;;;;;17.25;10.02;;;;;;;;;;8395209;28;20044;-86
2023/05/14 04:06:50;;;;;;;15.95;10.02;;;;;;;;;;8395271;28;20445;-87
2023/05/14 04:10:52;;;;;;;16.75;10.73;;;;;;;;;;8395212;28;20483;-86
2023/05/14 04:14:57;;;;;;;21.75;13.05;;;;;;;;;;8395151;28;20049;-86
2023/05/14 04:19:04;;;;;;;17.45;11.02;;;;;;;;;;8395149;28;20507;-86
2023/05/14 04:23:09;;;;;;;13.75;9.15;;;;;;;;;;8379911;28;20033;-85
2023/05/14 04:27:11;;;;;;;13.88;8.70;;;;;;;;;;8383494;28;20041;-85
2023/05/14 04:31:15;;;;;;;14.77;8.93;;;;;;;;;;8395287;28;20407;-85
2023/05/14 04:35:19;;;;;;;12.85;8.20;;;;;;;;;;8394708;28;20044;-86
2023/05/14 04:39:23;;;;;;;13.38;8.07;;;;;;;;;;8394596;28;20071;-87
2023/05/14 04:43:26;;;;;;;16.25;8.60;;;;;;;;;;8374648;28;20049;-86
2023/05/14 04:47:29;;;;;;;11.43;7.00;;;;;;;;;;8392496;28;20411;-86
2023/05/14 04:51:32;;;;;;;13.38;7.22;;;;;;;;;;8399116;28;20402;-87
2023/05/14 04:55:37;;;;;;;12.73;8.25;;;;;;;;;;8400351;28;20585;-86
2023/05/14 04:59:40;;;;;;;17.77;11.13;;;;;;;;;;8390616;28;20126;-86
2023/05/14 05:03:42;;;;;;;13.80;7.07;;;;;;;;;;8384562;28;20117;-86
2023/05/14 05:07:45;;;;;;;11.73;6.13;;;;;;;;;;8400210;28;20048;-86
2023/05/14 05:11:50;;;;;;;13.35;8.02;;;;;;;;;;8400137;28;20053;-87
2023/05/14 05:15:52;;;;;;;8.93;5.22;;;;;;;;;;8400083;28;20060;-87
2023/05/14 05:19:55;;;;;;;9.95;5.68;;;;;;;;;;8399925;28;20124;-87
2023/05/14 05:23:58;;;;;;;9.25;5.10;;;;;;;;;;8399731;28;20041;-87
2023/05/14 05:28:02;;;;;;;12.32;5.03;;;;;;;;;;8399798;28;20048;-86
2023/05/14 05:32:07;;;;;;;10.10;5.03;;;;;;;;;;8382710;28;20040;-87
2023/05/14 05:36:10;;;;;;;8.05;4.95;;;;;;;;;;8395420;28;20100;-87
2023/05/14 05:40:14;;;;;;;9.68;4.85;;;;;;;;;;8398770;28;20103;-87
2023/05/14 05:44:18;;;;;;;12.95;5.07;;;;;;;;;;8399673;28;20465;-87
2023/05/14 05:48:21;;;;;;;11.13;5.18;;;;;;;;;;8399623;28;20546;-87
2023/05/14 05:52:24;;;;;;;8.75;4.78;;;;;;;;;;8378228;28;20044;-88
2023/05/14 05:56:27;;;;;;;8.80;4.15;;;;;;;;;;8383624;28;20051;-88
2023/05/14 06:00:32;;;;;;;7.43;4.05;;;;;;;;;;8397796;28;20514;-88
2023/05/14 06:04:35;;;;;;;7.65;4.07;;;;;;;;;;8398245;28;20040;-85
2023/05/14 06:08:38;;;;;;;9.40;4.90;;;;;;;;;;8397345;28;20052;-87
2023/05/14 06:12:40;;;;;;;7.55;4.55;;;;;;;;;;8398074;28;20074;-85
2023/05/14 06:16:45;;;;;;;7.05;3.10;;;;;;;;;;8398047;28;20056;-85
2023/05/14 06:20:48;;;;;;;5.65;3.10;;;;;;;;;;8397973;28;20119;-84
2023/05/14 06:24:51;;;;;;;5.95;3.42;;;;;;;;;;8390800;28;20430;-85
2023/05/14 06:28:54;;;;;;;6.85;3.47;;;;;;;;;;8392397;28;20763;-86
2023/05/14 06:33:00;;;;;;;5.43;3.08;;;;;;;;;;8390076;28;20136;-88
2023/05/14 06:37:04;;;;;;;5.32;3.50;;;;;;;;;;8391179;28;20510;-87
2023/05/14 06:41:07;;;;;;;6.10;3.35;;;;;;;;;;8402667;28;20140;-86
2023/05/14 06:45:18;;;;;;;6.13;3.97;;;;;;;;;;8370706;28;20051;-88
2023/05/14 06:49:33;;;;;;;5.75;3.20;;;;;;;;;;8366979;28;20045;-89
2023/05/14 06:53:36;;;;;;;6.68;3.05;;;;;;;;;;8370565;28;20052;-87
2023/05/14 06:57:41;;;;;;;7.00;3.47;;;;;;;;;;8376437;28;20044;-89
2023/05/14 07:01:46;;;;;;;5.10;3.33;;;;;;;;;;8370103;28;20484;-89
2023/05/14 07:05:51;;;;;;;10.38;3.90;;;;;;;;;;8385572;28;20048;-89
2023/05/14 07:09:54;;;;;;;5.10;3.22;;;;;;;;;;8381827;28;20135;-90
2023/05/14 07:13:57;;;;;;;5.40;3.35;;;;;;;;;;8384145;28;20846;-89
2023/05/14 07:18:05;;;;;;;5.78;2.90;;;;;;;;;;8377493;28;20070;-90
2023/05/14 07:22:09;;;;;;;6.57;2.60;;;;;;;;;;8374599;28;20071;-91
2023/05/14 07:26:13;;;;;;;7.47;2.70;;;;;;;;;;8386199;28;20127;-89
2023/05/14 07:30:16;;;;;;;8.50;2.90;;;;;;;;;;8379974;28;20052;-85
2023/05/14 07:34:19;;;;;;;5.25;2.65;;;;;;;;;;8377440;28;20048;-88
2023/05/14 07:39:07;;;;;;;4.93;2.53;;;;;;;;;;8386571;28;20087;-88
2023/05/14 07:43:17;;;;;;;3.88;2.10;;;;;;;;;;8353800;28;20106;-89
2023/05/14 07:47:20;;;;;;;7.15;2.22;;;;;;;;;;8348129;28;20047;-87
2023/05/14 07:51:23;;;;;;;2.90;2.17;;;;;;;;;;8355420;28;20385;-88
2023/05/14 07:55:29;;;;;;;4.20;2.42;;;;;;;;;;8360490;28;20452;-88
2023/05/14 07:59:32;;;;;;;5.82;2.47;;;;;;;;;;8360712;28;20500;-85
2023/05/14 08:03:35;;;;;;;4.05;2.47;;;;;;;;;;8360969;28;20049;-87
2023/05/14 08:07:38;;;;;;;6.57;2.33;;;;;;;;;;8361573;28;20515;-87
2023/05/14 08:11:43;;;;;;;3.75;2.45;;;;;;;;;;8361755;28;20124;-87
2023/05/14 08:15:47;;;;;;;3.03;2.20;;;;;;;;;;8362268;28;20049;-87
2023/05/14 08:19:50;;;;;;;4.28;2.25;;;;;;;;;;8350985;28;20053;-86
2023/05/14 08:23:55;;;;;;;5.10;2.38;;;;;;;;;;8364725;28;20040;-87
2023/05/14 08:28:00;;;;;;;7.05;2.35;;;;;;;;;;8368194;28;20071;-89
2023/05/14 08:32:04;;;;;;;3.00;2.20;;;;;;;;;;8368673;28;20462;-89
2023/05/14 08:36:07;;;;;;;9.48;2.53;;;;;;;;;;8366530;28;20047;-90
2023/05/14 08:40:11;;;;;;;4.78;2.60;;;;;;;;;;8376979;28;20371;-86
2023/05/14 08:44:18;;;;;;;6.38;2.33;;;;;;;;;;8399362;28;20406;-86
2023/05/14 08:48:23;;;;;;;5.55;2.63;;;;;;;;;;8400885;28;20041;-84
2023/05/14 08:52:26;;;;;;;3.88;2.17;;;;;;;;;;8400998;28;20115;-85
2023/05/14 08:56:32;;;;;;;2.03;1.77;;;;;;;;;;8400111;28;20126;-82
2023/05/14 09:00:36;;;;;;;2.55;1.77;;;;;;;;;;8399739;28;20056;-88
2023/05/14 09:04:41;;;;;;;1.73;1.40;;;;;;;;;;8397009;28;20047;-86
2023/05/14 09:08:44;;;;;;;2.45;1.83;;;;;;;;;;8392603;28;20414;-86
2023/05/14 09:12:47;;;;;;;5.22;1.73;;;;;;;;;;8376141;28;20090;-86
2023/05/14 09:16:59;;;;;;;6.18;1.95;;;;;;;;;;8362433;28;20049;-86
2023/05/14 09:21:06;;;;;;;2.58;1.80;;;;;;;;;;8368050;28;20093;-86
2023/05/14 09:25:11;;;;;;;1.80;1.50;;;;;;;;;;8362235;28;20480;-87
2023/05/14 09:29:14;;;;;;;2.80;1.60;;;;;;;;;;8369907;28;20048;-87
2023/05/14 09:33:28;;;;;;;4.60;1.70;;;;;;;;;;8387615;28;20048;-86
2023/05/14 09:37:36;;;;;;;3.28;1.80;;;;;;;;;;8369372;28;20080;-87
2023/05/14 09:41:39;;;;;;;2.47;1.88;;;;;;;;;;8361218;28;20519;-89
2023/05/14 09:45:42;;;;;;;2.88;1.88;;;;;;;;;;8361295;28;20049;-87
2023/05/14 09:49:49;;;;;;;3.03;1.70;;;;;;;;;;8378138;28;20044;-86
2023/05/14 09:53:55;;;;;;;2.08;1.73;;;;;;;;;;8381076;28;20098;-88
2023/05/14 09:57:58;;;;;;;2.67;1.90;;;;;;;;;;8372573;28;20073;-87
2023/05/14 10:02:01;;;;;;;3.88;2.08;;;;;;;;;;8365641;28;20041;-88
2023/05/14 10:06:09;;;;;;;4.07;1.92;;;;;;;;;;8375603;28;20159;-88
2023/05/14 10:10:16;;;;;;;4.05;2.30;;;;;;;;;;8367261;28;20048;-89
2023/05/14 10:14:24;;;;;;;3.55;2.58;;;;;;;;;;8370276;28;20052;-87
2023/05/14 10:18:44;;;;;;;2.40;1.75;;;;;;;;;;8362791;28;20044;-88
2023/05/14 10:22:50;;;;;;;2.97;2.07;;;;;;;;;;8371848;28;20051;-88
2023/05/14 10:26:54;;;;;;;3.35;1.90;;;;;;;;;;8376398;28;20052;-87
2023/05/14 10:30:57;;;;;;;2.70;2.00;;;;;;;;;;8373114;28;20475;-87
2023/05/14 10:35:15;;;;;;;2.35;1.60;;;;;;;;;;8372740;28;20064;-89
2023/05/14 10:39:19;;;;;;;2.47;1.88;;;;;;;;;;8361144;28;20053;-87
2023/05/14 10:43:27;;;;;;;2.45;1.70;;;;;;;;;;8370817;28;20075;-88
2023/05/14 10:47:32;;;;;;;4.38;2.63;;;;;;;;;;8371099;28;20121;-88
2023/05/14 10:51:36;;;;;;;4.03;1.98;;;;;;;;;;8376489;28;20056;-88
2023/05/14 10:55:43;;;;;;;2.85;2.00;;;;;;;;;;8361538;28;20049;-88
2023/05/14 10:59:48;;;;;;;3.67;2.13;;;;;;;;;;8367659;28;20045;-87
2023/05/14 11:03:54;;;;;;;2.25;1.63;;;;;;;;;;8370227;28;20618;-88
2023/05/14 11:07:58;;;;;;;4.63;2.95;;;;;;;;;;8381114;28;20548;-87
2023/05/14 11:12:07;;;;;;;4.88;2.05;;;;;;;;;;8380165;28;20128;-88
2023/05/14 11:16:11;;;;;;;2.75;1.80;;;;;;;;;;8382486;28;20055;-89
2023/05/14 11:20:15;;;;;;;3.97;2.22;;;;;;;;;;8377414;28;20053;-89
2023/05/14 11:24:18;;;;;;;7.40;2.33;;;;;;;;;;8372074;28;20419;-89
2023/05/14 11:28:23;;;;;;;4.25;1.85;;;;;;;;;;8385396;28;20131;-90
2023/05/14 11:32:28;;;;;;;2.80;2.08;;;;;;;;;;8378412;28;20128;-88
2023/05/14 11:36:31;;;;;;;3.00;2.20;;;;;;;;;;8371554;28;20044;-89
2023/05/14 11:40:34;;;;;;;6.03;2.28;;;;;;;;;;8388362;28;20131;-89
2023/05/14 11:44:40;;;;;;;4.50;2.40;;;;;;;;;;8395766;28;20044;-87
2023/05/14 11:48:43;;;;;;;3.90;2.45;;;;;;;;;;8394300;28;20135;-88
2023/05/14 11:52:47;;;;;;;5.22;2.53;;;;;;;;;;8394771;28;20130;-87
2023/05/14 11:56:51;;;;;;;6.38;3.40;;;;;;;;;;8385302;28;20041;-89
2023/05/14 12:00:56;;;;;;;3.65;2.45;;;;;;;;;;8394629;28;20048;-88
2023/05/14 12:05:01;;;;;;;5.68;2.30;;;;;;;;;;8395200;28;20051;-91
2023/05/14 12:09:05;;;;;;;3.78;2.42;;;;;;;;;;8407911;28;20048;-89
2023/05/14 12:13:09;;;;;;;6.43;2.65;;;;;;;;;;8401536;28;20046;-91
2023/05/14 12:17:16;;;;;;;4.65;2.78;;;;;;;;;;8388431;28;20041;-89
2023/05/14 12:21:20;;;;;;;4.82;2.78;;;;;;;;;;8382017;28;20079;-88
2023/05/14 12:25:26;;;;;;;5.35;2.72;;;;;;;;;;8394951;28;20048;-89
2023/05/14 12:29:29;;;;;;;4.82;2.50;;;;;;;;;;8394585;28;20040;-88
2023/05/14 12:33:33;;;;;;;4.25;2.72;;;;;;;;;;8395092;28;20389;-88
2023/05/14 12:37:38;;;;;;;2.80;2.28;;;;;;;;;;8394972;28;20514;-88
2023/05/14 12:41:41;;;;;;;4.07;2.40;;;;;;;;;;8404512;28;20049;-87
2023/05/14 12:45:44;;;;;;;6.38;2.70;;;;;;;;;;8394039;28;20044;-88
2023/05/14 12:49:49;;;;;;;5.03;2.55;;;;;;;;;;8405909;28;20058;-87
2023/05/14 12:53:53;;;;;;;6.18;2.17;;;;;;;;;;8395808;28;20043;-89
2023/05/14 12:57:56;;;;;;;4.07;2.30;;;;;;;;;;8394359;28;20052;-88
2023/05/14 13:01:59;;;;;;;3.42;2.30;;;;;;;;;;8394034;28;20066;-89
2023/05/14 13:06:04;;;;;;;3.33;2.20;;;;;;;;;;8394002;28;20446;-88
2023/05/14 13:10:35;;;;;;;4.90;2.75;;;;;;;;;;8391913;28;20172;-89
2023/05/14 13:14:38;;;;;;;6.28;2.58;;;;;;;;;;8385772;28;20064;-90
2023/05/14 13:18:41;;;;;;;5.15;2.15;;;;;;;;;;8378202;28;20098;-89
2023/05/14 13:22:46;;;;;;;3.10;1.90;;;;;;;;;;8390444;28;20037;-89
2023/05/14 13:26:49;;;;;;;5.55;2.15;;;;;;;;;;8394967;28;20045;-88
2023/05/14 13:31:06;;;;;;;3.08;1.88;;;;;;;;;;8386817;28;20045;-88
2023/05/14 13:35:10;;;;;;;3.83;1.80;;;;;;;;;;8397551;28;20115;-89
2023/05/14 13:39:16;;;;;;;3.05;1.65;;;;;;;;;;8397569;28;20041;-89
2023/05/14 13:43:20;;;;;;;3.13;1.73;;;;;;;;;;8398287;28;20068;-88
2023/05/14 13:47:24;;;;;;;3.10;1.92;;;;;;;;;;8398189;28;20110;-90
2023/05/14 13:51:27;;;;;;;3.90;2.15;;;;;;;;;;8398603;28;20110;-89
2023/05/14 13:55:31;;;;;;;2.97;1.95;;;;;;;;;;8399205;28;20170;-87
2023/05/14 13:59:34;;;;;;;3.67;2.00;;;;;;;;;;8375612;28;20044;-87
2023/05/14 14:03:37;;;;;;;5.22;2.20;;;;;;;;;;8384668;28;20044;-86
2023/05/14 14:07:40;;;;;;;3.25;2.13;;;;;;;;;;8402235;28;20113;-88
2023/05/14 14:11:44;;;;;;;3.25;1.90;;;;;;;;;;8396549;28;20044;-87
2023/05/14 14:15:47;;;;;;;4.65;2.00;;;;;;;;;;8408074;28;20399;-87
2023/05/14 14:19:50;;;;;;;5.63;2.03;;;;;;;;;;8385749;28;20119;-89
2023/05/14 14:23:53;;;;;;;3.63;2.08;;;;;;;;;;8391788;28;20072;-89
2023/05/14 14:27:58;;;;;;;3.45;2.05;;;;;;;;;;8382209;28;20056;-89
2023/05/14 14:32:01;;;;;;;2.95;1.95;;;;;;;;;;8391285;28;20041;-88
2023/05/14 14:36:04;;;;;;;3.55;2.22;;;;;;;;;;8394397;28;20049;-89
2023/05/14 14:40:09;;;;;;;6.53;2.42;;;;;;;;;;8392558;28;20065;-89
2023/05/14 14:44:14;;;;;;;3.13;2.08;;;;;;;;;;8380069;28;20178;-90
2023/05/14 14:48:24;;;;;;;3.05;1.90;;;;;;;;;;8365914;28;20053;-88
2023/05/14 14:52:28;;;;;;;2.83;1.90;;;;;;;;;;8375738;28;20127;-89
2023/05/14 14:56:31;;;;;;;4.22;2.28;;;;;;;;;;8381449;28;20106;-87
2023/05/14 15:00:36;;;;;;;3.53;2.08;;;;;;;;;;8369445;28;20071;-88
2023/05/14 15:04:38;;;;;;;2.65;1.95;;;;;;;;;;8362952;28;20053;-86
2023/05/14 15:08:41;;;;;;;3.10;2.35;;;;;;;;;;8386664;28;20044;-87
2023/05/14 15:12:44;;;;;;;6.32;2.03;;;;;;;;;;8366089;28;20161;-87
2023/05/14 15:16:48;;;;;;;5.18;2.05;;;;;;;;;;8376042;28;20045;-89
2023/05/14 15:20:51;;;;;;;2.95;2.05;;;;;;;;;;8371476;28;20102;-90
2023/05/14 15:24:54;;;;;;;5.10;2.83;;;;;;;;;;8373907;28;20480;-88
2023/05/14 15:28:57;;;;;;;4.63;2.22;;;;;;;;;;8363070;28;20044;-89
2023/05/14 15:33:02;;;;;;;5.55;2.78;;;;;;;;;;8361124;28;20399;-87
2023/05/14 15:37:05;;;;;;;6.38;4.15;;;;;;;;;;8372474;28;20553;-90
2023/05/14 15:41:08;;;;;;;8.57;3.67;;;;;;;;;;8370466;28;20061;-88
2023/05/14 15:45:13;;;;;;;4.57;3.10;;;;;;;;;;8362612;28;20124;-90
2023/05/14 15:49:18;;;;;;;5.13;2.45;;;;;;;;;;8373597;28;20037;-89
2023/05/14 15:53:20;;;;;;;4.65;2.40;;;;;;;;;;8364175;28;20055;-89
2023/05/14 15:57:24;;;;;;;5.75;2.70;;;;;;;;;;8364143;28;20048;-86
2023/05/14 16:01:27;;;;;;;7.20;3.35;;;;;;;;;;8368854;28;20054;-86
2023/05/14 16:05:32;;;;;;;5.13;2.72;;;;;;;;;;8375812;28;20415;-87
2023/05/14 16:09:36;;;;;;;5.93;2.72;;;;;;;;;;8361594;28;20500;-88
2023/05/14 16:13:40;;;;;;;6.97;3.38;;;;;;;;;;8366999;28;20045;-86
2023/05/14 16:17:43;;;;;;;4.90;2.92;;;;;;;;;;8370345;28;20488;-87
2023/05/14 16:21:50;;;;;;;6.13;2.58;;;;;;;;;;8357954;28;20075;-87
2023/05/14 16:25:53;;;;;;;4.75;2.55;;;;;;;;;;8357561;28;20052;-90
2023/05/14 16:29:56;;;;;;;9.77;4.65;;;;;;;;;;8362943;28;20114;-86
2023/05/14 16:33:59;;;;;;;4.90;3.35;;;;;;;;;;8371119;28;20055;-86
2023/05/14 16:38:04;;;;;;;5.28;2.22;;;;;;;;;;8370008;28;20041;-85
2023/05/14 16:42:07;;;;;;;9.30;4.22;;;;;;;;;;8366737;28;20064;-88
2023/05/14 16:46:10;;;;;;;5.80;3.50;;;;;;;;;;8373592;28;20478;-86
2023/05/14 16:50:13;;;;;;;7.80;3.35;;;;;;;;;;8384410;28;20040;-87
2023/05/14 16:54:18;;;;;;;5.47;3.03;;;;;;;;;;8382655;28;20036;-89
2023/05/14 16:58:21;;;;;;;9.25;2.90;;;;;;;;;;8371942;28;20049;-86
2023/05/14 17:02:24;;;;;;;6.85;3.65;;;;;;;;;;8382039;28;20057;-87
2023/05/14 17:06:27;;;;;;;8.68;5.45;;;;;;;;;;8373883;28;20444;-86
2023/05/14 17:10:32;;;;;;;7.95;3.03;;;;;;;;;;8369441;28;20048;-87
2023/05/14 17:14:35;;;;;;;10.18;3.20;;;;;;;;;;8387126;28;20587;-90
2023/05/14 17:18:38;;;;;;;5.38;3.00;;;;;;;;;;8382485;28;20488;-86
2023/05/14 17:22:42;;;;;;;6.07;3.10;;;;;;;;;;8386305;28;20044;-85
2023/05/14 17:26:46;;;;;;;10.10;4.22;;;;;;;;;;8374688;28;20124;-87
2023/05/14 17:30:49;;;;;;;9.05;3.80;;;;;;;;;;8375132;28;20082;-85
2023/05/14 17:34:53;;;;;;;8.60;4.75;;;;;;;;;;8378505;28;20040;-86
2023/05/14 17:38:56;;;;;;;15.57;10.05;;;;;;;;;;8374806;28;20056;-85
2023/05/14 17:43:01;;;;;;;7.63;4.28;;;;;;;;;;8369195;28;20041;-86
2023/05/14 17:47:06;;;;;;;10.82;6.93;;;;;;;;;;8386450;28;20048;-85
2023/05/14 17:51:13;;;;;;;9.32;4.80;;;;;;;;;;8379738;28;20041;-86
2023/05/14 17:55:19;;;;;;;14.65;4.65;;;;;;;;;;8372025;28;20078;-89
2023/05/14 17:59:25;;;;;;;11.85;6.38;;;;;;;;;;8386282;28;20075;-85
2023/05/14 18:03:29;;;;;;;16.92;10.13;;;;;;;;;;8382821;28;20156;-85
2023/05/14 18:07:36;;;;;;;12.95;6.32;;;;;;;;;;8380716;28;20051;-86
2023/05/14 18:11:43;;;;;;;5.97;3.60;;;;;;;;;;8365791;28;20140;-85
2023/05/14 18:15:50;;;;;;;7.95;3.35;;;;;;;;;;8374934;28;20532;-86
2023/05/14 18:19:55;;;;;;;15.20;5.50;;;;;;;;;;8388027;28;20041;-88
2023/05/14 18:23:58;;;;;;;8.73;4.10;;;;;;;;;;8382482;28;20476;-85
2023/05/14 18:28:02;;;;;;;11.82;4.70;;;;;;;;;;8378152;28;20040;-86
2023/05/14 18:32:07;;;;;;;8.07;3.90;;;;;;;;;;8370999;28;20443;-85
2023/05/14 18:36:10;;;;;;;8.05;3.78;;;;;;;;;;8365622;28;20037;-84
2023/05/14 18:40:14;;;;;;;9.70;4.93;;;;;;;;;;8363279;28;20052;-84
2023/05/14 18:44:17;;;;;;;7.85;3.30;;;;;;;;;;8360206;28;20049;-85
2023/05/14 18:48:22;;;;;;;7.93;3.65;;;;;;;;;;8408893;28;20060;-85
2023/05/14 18:52:26;;;;;;;10.88;3.97;;;;;;;;;;8382205;28;20087;-86
2023/05/14 18:56:30;;;;;;;12.02;4.82;;;;;;;;;;8395760;28;20082;-84
2023/05/14 19:00:34;;;;;;;5.57;3.55;;;;;;;;;;8390814;28;20045;-85
2023/05/14 19:04:40;;;;;;;7.53;3.40;;;;;;;;;;8395577;28;20126;-84
2023/05/14 19:08:46;;;;;;;5.63;3.40;;;;;;;;;;8395917;28;20079;-84
2023/05/14 19:12:49;;;;;;;6.65;4.35;;;;;;;;;;8396198;28;20618;-85
2023/05/14 19:16:52;;;;;;;6.47;3.97;;;;;;;;;;8384000;28;20491;-85
2023/05/14 19:20:57;;;;;;;7.55;3.55;;;;;;;;;;8396038;28;20044;-84
2023/05/14 19:25:01;;;;;;;6.28;3.58;;;;;;;;;;8396175;28;20090;-84
2023/05/14 19:29:04;;;;;;;7.20;3.50;;;;;;;;;;8395908;28;20041;-84
2023/05/14 19:33:08;;;;;;;6.93;3.92;;;;;;;;;;8389269;28;20047;-84
2023/05/14 19:37:12;;;;;;;8.90;3.72;;;;;;;;;;8396121;28;20174;-84
2023/05/14 19:41:16;;;;;;;10.10;4.10;;;;;;;;;;8376809;28;20207;-85
2023/05/14 19:45:22;;;;;;;12.40;6.07;;;;;;;;;;8362829;28;20412;-85
2023/05/14 19:49:25;;;;;;;12.30;6.25;;;;;;;;;;8362460;28;20044;-84
2023/05/14 19:53:30;;;;;;;12.52;6.55;;;;;;;;;;8362279;28;20055;-84
2023/05/14 19:57:33;;;;;;;11.18;5.95;;;;;;;;;;8344409;28;20068;-85
2023/05/14 20:01:36;;;;;;;27.45;18.65;;;;;;;;;;8361858;28;20396;-85
2023/05/14 20:05:39;;;;;;;12.77;7.63;;;;;;;;;;8357707;28;20136;-85
2023/05/14 20:09:45;;;;;;;13.35;7.47;;;;;;;;;;8355312;28;20055;-85
2023/05/14 20:13:48;;;;;;;10.45;5.75;;;;;;;;;;8362006;28;20052;-84
2023/05/14 20:17:51;;;;;;;8.85;5.38;;;;;;;;;;8361666;28;20099;-85
2023/05/14 20:21:55;;;;;;;8.77;4.38;;;;;;;;;;8368545;28;20056;-84
2023/05/14 20:26:00;;;;;;;7.22;4.57;;;;;;;;;;8360629;28;20064;-90
2023/05/14 20:30:04;;;;;;;7.72;4.50;;;;;;;;;;8368295;28;20047;-89
2023/05/14 20:34:07;;;;;;;7.95;4.05;;;;;;;;;;8368427;28;20136;-91
2023/05/14 20:38:11;;;;;;;8.20;4.15;;;;;;;;;;8369581;28;20579;-87
2023/05/14 20:42:16;;;;;;;6.85;4.00;;;;;;;;;;8395079;28;20049;-86
2023/05/14 20:46:19;;;;;;;6.35;3.83;;;;;;;;;;8401473;28;20090;-87
2023/05/14 20:50:25;;;;;;;8.88;4.53;;;;;;;;;;8401271;28;20046;-88
2023/05/14 20:54:28;;;;;;;9.27;4.18;;;;;;;;;;8401141;28;20613;-86
2023/05/14 20:58:34;;;;;;;9.65;4.22;;;;;;;;;;8382469;28;20052;-90
2023/05/14 21:02:38;;;;;;;8.30;3.70;;;;;;;;;;8410477;28;20048;-85
2023/05/14 21:06:41;;;;;;;9.85;4.20;;;;;;;;;;8404144;28;20055;-86
2023/05/14 21:10:44;;;;;;;9.43;4.13;;;;;;;;;;8400409;28;20408;-87
2023/05/14 21:14:48;;;;;;;7.43;4.30;;;;;;;;;;8400925;28;20456;-86
2023/05/14 21:18:51;;;;;;;6.80;3.50;;;;;;;;;;8400260;28;20071;-86
2023/05/14 21:22:54;;;;;;;7.88;3.63;;;;;;;;;;8399693;28;20074;-86
2023/05/14 21:26:57;;;;;;;9.07;4.18;;;;;;;;;;8399704;28;20051;-86
2023/05/14 21:31:01;;;;;;;8.77;4.22;;;;;;;;;;8393514;28;20443;-87
2023/05/14 21:35:05;;;;;;;5.07;3.75;;;;;;;;;;8383980;28;20510;-88
2023/05/14 21:39:08;;;;;;;6.93;3.55;;;;;;;;;;8399504;28;20071;-89
2023/05/14 21:43:11;;;;;;;8.60;4.28;;;;;;;;;;8399302;28;20483;-87
2023/05/14 21:47:15;;;;;;;7.97;4.30;;;;;;;;;;8396311;28;20067;-86
2023/05/14 21:51:18;;;;;;;7.93;4.03;;;;;;;;;;8388767;28;20146;-85
2023/05/14 21:55:21;;;;;;;7.70;4.10;;;;;;;;;;8398864;28;20127;-85
2023/05/14 21:59:24;;;;;;;8.40;3.85;;;;;;;;;;8381025;28;20484;-85
2023/05/14 22:03:28;;;;;;;7.28;3.60;;;;;;;;;;8383033;28;20677;-87
2023/05/14 22:07:32;;;;;;;6.45;3.75;;;;;;;;;;8394888;28;20090;-86
2023/05/14 22:11:34;;;;;;;6.60;3.95;;;;;;;;;;8398364;28;20047;-85
2023/05/14 22:15:38;;;;;;;7.90;3.60;;;;;;;;;;8398691;28;20480;-85
2023/05/14 22:19:42;;;;;;;6.53;3.53;;;;;;;;;;8397664;28;20408;-86
2023/05/14 22:23:45;;;;;;;4.55;3.10;;;;;;;;;;8397321;28;20044;-87
2023/05/14 22:27:48;;;;;;;6.35;3.15;;;;;;;;;;8396990;28;20045;-86
2023/05/14 22:31:51;;;;;;;8.07;3.85;;;;;;;;;;8397716;28;20055;-87
2023/05/14 22:35:55;;;;;;;6.30;3.58;;;;;;;;;;8386776;28;20041;-86
2023/05/14 22:39:58;;;;;;;5.90;3.15;;;;;;;;;;8394409;28;20045;-86
2023/05/14 22:44:01;;;;;;;4.57;3.20;;;;;;;;;;8394874;28;20051;-86
2023/05/14 22:48:04;;;;;;;7.00;3.30;;;;;;;;;;8394769;28;20157;-86
2023/05/14 22:52:08;;;;;;;7.85;3.40;;;;;;;;;;8392669;28;20048;-86
2023/05/14 22:56:11;;;;;;;7.93;3.45;;;;;;;;;;8394888;28;20439;-86
2023/05/14 23:00:15;;;;;;;6.90;3.17;;;;;;;;;;8393590;28;20049;-86
2023/05/14 23:04:18;;;;;;;6.00;3.80;;;;;;;;;;8396719;28;20033;-85
2023/05/14 23:08:22;;;;;;;6.10;3.13;;;;;;;;;;8396756;28;20106;-85
2023/05/14 23:12:25;;;;;;;5.60;3.33;;;;;;;;;;8396412;28;20055;-85
2023/05/14 23:16:28;;;;;;;6.18;3.13;;;;;;;;;;8396449;28;20047;-86
2023/05/14 23:20:30;;;;;;;4.65;2.95;;;;;;;;;;8396152;28;20053;-85
2023/05/14 23:24:35;;;;;;;6.00;3.05;;;;;;;;;;8396070;28;20043;-85
2023/05/14 23:28:38;;;;;;;5.50;3.33;;;;;;;;;;8396183;28;20040;-86
2023/05/14 23:32:41;;;;;;;4.88;3.00;;;;;;;;;;8393075;28;20521;-86
2023/05/14 23:36:44;;;;;;;5.82;3.42;;;;;;;;;;8385979;28;20048;-86
2023/05/14 23:40:49;;;;;;;4.80;3.03;;;;;;;;;;8382184;28;20056;-86
2023/05/14 23:44:52;;;;;;;8.63;3.60;;;;;;;;;;8395831;28;20044;-86
2023/05/14 23:48:55;;;;;;;7.97;3.60;;;;;;;;;;8395079;28;20086;-85
2023/05/14 23:52:58;;;;;;;6.05;4.32;;;;;;;;;;8385001;28;20048;-85
2023/05/14 23:57:04;;;;;;;5.57;3.75;;;;;;;;;;8395412;28;20055;-85
